Polar Lady — WDC4401 — position and weather

sailwx.info

Track history (hours):
 
Tides and Currents Weather Stations Pressure Air Temp Water Temp Dewpoint Dewpoint Depression Visibility Wind Speed Wind Dir Waves Ship Positions

Polar Lady

Owner: M.G.F Fisheries, Seattle, WA. More information available from US FCC via Universal Licensing System and Coast Guard Vessel Documentation Center.

Last reported at 2017-Jun-16 19:45 UTC. Time now 2017-Jun-27 22:24 UTC.
Position N 52°29' W 128°27'.
Warning: this ship's position is 11 days out of date.

Length 40 m.

Type: Fishing. MMSI: 367024080.

Date/timePositionNaut miles runAvg speedWind from/ knotsBaromVisibWave heightAir tempDewpointWater temp
2017-Jun-16 19:45N 52°29' W 128°27'2 9.5
2017-Jun-16 19:30N 52°27' W 128°28'22 7.2
2017-Jun-16 16:25N 52°08' W 128°08'4 8.5
2017-Jun-16 15:59N 52°05' W 128°06'6 9.4
2017-Jun-16 15:22N 52°04' W 127°56'3 9.0
2017-Jun-16 15:00N 52°01' W 127°56'9 9.3
2017-Jun-16 14:00N 51°51' W 127°57'5 9.1
2017-Jun-16 13:30N 51°47' W 127°57'5 9.3
2017-Jun-16 13:00N 51°42' W 127°57'5 9.9
2017-Jun-16 12:30N 51°37' W 127°54'5 9.7
2017-Jun-16 12:00N 51°33' W 127°53'5 9.2
2017-Jun-16 11:27N 51°28' W 127°51'11 9.1
2017-Jun-16 10:15N 51°17' W 127°53'4 8.8
2017-Jun-16 09:47N 51°13' W 127°52'102 8.9
2017-Jun-15 22:22N 50°22' W 125°33'410.4
2017-Jun-15 22:00N 50°20' W 125°27'5 9.6
2017-Jun-15 21:30N 50°16' W 125°24'610.9
2017-Jun-15 21:00N 50°11' W 125°22'612.3
2017-Jun-15 20:30N 50°06' W 125°17'713.2
2017-Jun-15 20:00N 49°59' W 125°12'510.1
2017-Jun-15 19:30N 49°56' W 125°07'5 9.7
2017-Jun-15 19:00N 49°53' W 125°02'5 9.4
2017-Jun-15 18:30N 49°49' W 124°57'5 9.8
2017-Jun-15 18:00N 49°46' W 124°51'510.0
2017-Jun-15 17:30N 49°42' W 124°46'5 9.9
2017-Jun-15 17:00N 49°39' W 124°40'48 9.7
2017-Jun-15 12:03N 49°13' W 123°38'1 9.7
2017-Jun-15 11:57N 49°12' W 123°37'610.1
2017-Jun-15 11:21N 49°08' W 123°30'410.2
2017-Jun-15 10:58N 49°06' W 123°26'5 9.9
2017-Jun-15 10:29N 49°03' W 123°20'5 9.3
2017-Jun-15 09:59N 48°60' W 123°14'5 9.0
2017-Jun-15 09:26N 48°57' W 123°08'4 9.4
2017-Jun-15 09:00N 48°54' W 123°04'7 9.8
2017-Jun-15 08:18N 48°50' W 122°56'5 9.5
2017-Jun-15 07:48N 48°47' W 122°50'3 8.7
2017-Jun-15 07:29N 48°45' W 122°47'5 9.6
2017-Jun-15 07:00N 48°41' W 122°44'4 8.0
2017-Jun-15 06:30N 48°37' W 122°45'5 9.4
2017-Jun-15 06:00N 48°32' W 122°45'510.2
2017-Jun-15 05:30N 48°27' W 122°44'6 9.8
2017-Jun-15 04:56N 48°21' W 122°45'5 8.8
2017-Jun-15 04:21N 48°16' W 122°47'3 8.5
2017-Jun-15 03:59N 48°13' W 122°48'4 7.4
2017-Jun-15 03:23N 48°10' W 122°44'3 5.7
2017-Jun-15 02:57N 48°08' W 122°41'10 6.3
2017-Jun-15 01:20N 47°59' W 122°35'2 7.1
2017-Jun-15 01:00N 47°57' W 122°32'4 8.3
2017-Jun-15 00:30N 47°54' W 122°28'4 8.5
2017-Jun-15 00:00N 47°50' W 122°27'5 9.2
2017-Jun-14 23:30N 47°45' W 122°25'4 9.0
2017-Jun-14 23:00N 47°41' W 122°25'1 2.5
2017-Jun-14 22:30N 47°40' W 122°24'0 0.7
2017-Jun-14 22:00N 47°40' W 122°23'0 0.1
2017-Jun-14 21:30N 47°40' W 122°23'0 0.2
2017-Jun-14 21:01N 47°40' W 122°23'0 0.0
2017-Jun-14 20:30N 47°40' W 122°23'0 0.0
2017-Jun-14 20:01N 47°40' W 122°23'0 0.0
2017-Jun-14 19:30N 47°40' W 122°23'0 0.0
2017-Jun-14 19:00N 47°40' W 122°23'0 0.0
2017-Jun-14 18:30N 47°40' W 122°23'0 0.4
2017-Jun-14 18:00N 47°40' W 122°23'0 0.6
2017-Jun-14 17:30N 47°40' W 122°23'0 0.0
2017-Jun-14 17:00N 47°40' W 122°23'0 0.0
2017-Jun-14 16:30N 47°40' W 122°23'0 0.0
2017-Jun-14 16:00N 47°40' W 122°23'0 0.0
2017-Jun-14 15:30N 47°40' W 122°23'0 0.0
2017-Jun-14 15:00N 47°40' W 122°23'0 0.0
2017-Jun-14 14:00N 47°40' W 122°23'0 0.0
2017-Jun-14 13:30N 47°40' W 122°23'0 0.0
2017-Jun-14 13:00N 47°40' W 122°23'0 0.0
2017-Jun-14 12:30N 47°40' W 122°23'0 0.0
2017-Jun-14 12:00N 47°40' W 122°23'0 0.0
2017-Jun-14 11:30N 47°40' W 122°23'0 0.0
2017-Jun-14 11:00N 47°40' W 122°23'0 0.0
2017-Jun-14 10:30N 47°40' W 122°23'0 0.0
2017-Jun-14 10:00N 47°40' W 122°23'0 0.0
2017-Jun-14 09:30N 47°40' W 122°23'0 0.0
2017-Jun-14 09:00N 47°40' W 122°23'0 0.0
2017-Jun-14 08:30N 47°40' W 122°23'0 0.0
2017-Jun-14 08:00N 47°40' W 122°23'0 0.0
2017-Jun-14 07:30N 47°40' W 122°23'0 0.0
2017-Jun-14 07:00N 47°40' W 122°23'0 0.0
2017-Jun-14 06:31N 47°40' W 122°23'0 0.0
2017-Jun-14 06:00N 47°40' W 122°23'0 0.0
2017-Jun-14 05:30N 47°40' W 122°23'0 0.0
2017-Jun-14 05:01N 47°40' W 122°23'0 0.0
2017-Jun-14 04:30N 47°40' W 122°23'0 0.0
2017-Jun-14 04:00N 47°40' W 122°23'0 0.0
2017-Jun-14 03:30N 47°40' W 122°23'0 0.0
2017-Jun-14 03:00N 47°40' W 122°23'0 0.0
2017-Jun-14 02:30N 47°40' W 122°23'0 0.0
2017-Jun-14 02:00N 47°40' W 122°23'0 0.0
2017-Jun-14 01:30N 47°40' W 122°23'0 0.0
2017-Jun-14 01:00N 47°40' W 122°23'0 0.0
2017-Jun-14 00:30N 47°40' W 122°23'0 0.0
2017-Jun-14 00:00N 47°40' W 122°23'0 0.0
2017-Jun-13 23:30N 47°40' W 122°23'0 0.0
2017-Jun-13 23:00N 47°40' W 122°23'0 0.2
2017-Jun-13 22:30N 47°40' W 122°23'0 0.4
2017-Jun-13 22:00N 47°40' W 122°23'0 0.0
2017-Jun-13 21:30N 47°40' W 122°23'0 0.0
2017-Jun-13 21:00N 47°40' W 122°23'0 0.0
2017-Jun-13 20:30N 47°40' W 122°23'0 0.0
2017-Jun-13 20:00N 47°40' W 122°23'0 0.6
2017-Jun-13 19:30N 47°40' W 122°23'0 0.5
2017-Jun-13 19:00N 47°39' W 122°23'0 0.0
2017-Jun-13 18:30N 47°39' W 122°23'0 0.0
2017-Jun-13 18:00N 47°39' W 122°23'0 0.0
2017-Jun-13 17:30N 47°39' W 122°23'0 0.0
2017-Jun-13 17:00N 47°39' W 122°23'0 0.0
2017-Jun-13 16:31N 47°39' W 122°23'0 0.0
2017-Jun-13 16:00N 47°39' W 122°23'0 0.0
2017-Jun-13 15:31N 47°39' W 122°23'0 0.0
2017-Jun-13 15:00N 47°39' W 122°23'0 0.0
2017-Jun-13 14:00N 47°39' W 122°23'0 0.0
2017-Jun-13 13:30N 47°39' W 122°23'0 0.0
2017-Jun-13 13:00N 47°39' W 122°23'0 0.0
2017-Jun-13 12:30N 47°39' W 122°23'0 0.0
2017-Jun-13 12:00N 47°39' W 122°23'0 0.0
2017-Jun-13 11:30N 47°39' W 122°23'0 0.0
2017-Jun-13 11:00N 47°39' W 122°23'0 0.0
2017-Jun-13 10:30N 47°39' W 122°23'0 0.0
2017-Jun-13 10:01N 47°39' W 122°23'0 0.0
2017-Jun-13 09:30N 47°39' W 122°23'0 0.0
2017-Jun-13 09:00N 47°39' W 122°23'0 0.0
2017-Jun-13 08:30N 47°39' W 122°23'0 0.0
2017-Jun-13 08:00N 47°39' W 122°23'0 0.0
2017-Jun-13 07:30N 47°39' W 122°23'0 0.0
2017-Jun-13 07:00N 47°39' W 122°23'0 0.0
2017-Jun-13 06:30N 47°39' W 122°23'0 0.0
2017-Jun-13 06:01N 47°39' W 122°23'0 0.0
2017-Jun-13 05:31N 47°39' W 122°23'0 0.0
2017-Jun-13 05:00N 47°39' W 122°23'0 0.0
2017-Jun-13 04:30N 47°39' W 122°23'0 0.0
2017-Jun-13 04:00N 47°39' W 122°23'0 0.0
2017-Jun-13 03:30N 47°39' W 122°23'0 0.0
2017-Jun-13 03:00N 47°39' W 122°23'0 0.0
2017-Jun-13 02:31N 47°39' W 122°23'0 0.0
2017-Jun-13 02:00N 47°39' W 122°23'0 0.0
2017-Jun-13 01:31N 47°39' W 122°23'0 0.0
2017-Jun-13 01:00N 47°39' W 122°23'0 0.0
2017-Jun-13 00:31N 47°39' W 122°23'0 0.0
2017-Jun-13 00:01N 47°39' W 122°23'0 0.0
2017-Jun-12 23:31N 47°39' W 122°23'0 0.0
2017-Jun-12 23:01N 47°39' W 122°23'0 0.0
2017-Jun-12 22:30N 47°39' W 122°23'0 0.0
2017-Jun-12 22:01N 47°39' W 122°23'0 0.0
2017-Jun-12 21:30N 47°39' W 122°23'0 0.0
2017-Jun-12 21:01N 47°39' W 122°23'0 0.0
2017-Jun-12 20:30N 47°39' W 122°23'0 0.0
2017-Jun-12 20:00N 47°39' W 122°23'0 0.0
2017-Jun-12 19:31N 47°39' W 122°23'0 0.0
2017-Jun-12 19:00N 47°39' W 122°23'0 0.0
2017-Jun-12 18:31N 47°39' W 122°23'0 0.0
2017-Jun-12 18:00N 47°39' W 122°23'0 0.0
2017-Jun-12 17:31N 47°39' W 122°23'0 0.0
2017-Jun-12 17:01N 47°39' W 122°23'0 0.0
2017-Jun-12 16:30N 47°39' W 122°23'0 0.0
2017-Jun-12 16:00N 47°39' W 122°23'0 0.0
2017-Jun-12 15:30N 47°39' W 122°23'0 0.0
2017-Jun-12 15:00N 47°39' W 122°23'0 0.0
2017-Jun-12 14:31N 47°39' W 122°23'0 0.0
2017-Jun-12 13:31N 47°39' W 122°23'0 0.0
2017-Jun-12 13:00N 47°39' W 122°23'0 0.0
2017-Jun-12 12:30N 47°39' W 122°23'0 0.0
2017-Jun-12 12:00N 47°39' W 122°23'0 0.0
2017-Jun-12 11:31N 47°39' W 122°23'0 0.0
2017-Jun-12 11:01N 47°39' W 122°23'0 0.0
2017-Jun-12 10:31N 47°39' W 122°23'0 0.0
2017-Jun-12 10:00N 47°39' W 122°23'0 0.0
2017-Jun-12 09:30N 47°39' W 122°23'0 0.0
2017-Jun-12 09:00N 47°39' W 122°23'0 0.0
2017-Jun-12 08:30N 47°39' W 122°23'0 0.0
2017-Jun-12 08:01N 47°39' W 122°23'0 0.0
2017-Jun-12 07:30N 47°39' W 122°23'0 0.0
2017-Jun-12 07:00N 47°39' W 122°23'0 0.0
2017-Jun-12 06:30N 47°39' W 122°23'0 0.0
2017-Jun-12 06:00N 47°39' W 122°23'0 0.0
2017-Jun-12 05:31N 47°39' W 122°23'0 0.0
2017-Jun-12 05:00N 47°39' W 122°23'0 0.0
2017-Jun-12 04:31N 47°39' W 122°23'0 0.0
2017-Jun-12 04:01N 47°39' W 122°23'0 0.0
2017-Jun-12 03:30N 47°39' W 122°23'0 0.0
2017-Jun-12 03:00N 47°39' W 122°23'0 0.0
2017-Jun-12 02:31N 47°39' W 122°23'0 0.0
2017-Jun-12 02:00N 47°39' W 122°23'0 0.0
2017-Jun-12 01:30N 47°39' W 122°23'0 0.0
2017-Jun-12 01:01N 47°39' W 122°23'0 0.0
2017-Jun-12 00:30N 47°39' W 122°23'0 0.0
2017-Jun-12 00:00N 47°39' W 122°23'0 0.0
2017-Jun-11 23:31N 47°39' W 122°23'0 0.0
2017-Jun-11 23:00N 47°39' W 122°23'0 0.0
2017-Jun-11 22:30N 47°39' W 122°23'0 0.0
2017-Jun-11 22:00N 47°39' W 122°23'0 0.0
2017-Jun-11 21:31N 47°39' W 122°23'0 0.0
2017-Jun-11 21:01N 47°39' W 122°23'0 0.0
2017-Jun-11 20:30N 47°39' W 122°23'0 0.0
2017-Jun-11 20:00N 47°39' W 122°23'0 0.0
2017-Jun-11 19:31N 47°39' W 122°23'0 0.0
2017-Jun-11 19:00N 47°39' W 122°23'0 0.0
2017-Jun-11 18:30N 47°39' W 122°23'0 0.0
2017-Jun-11 18:00N 47°39' W 122°23'0 0.0
2017-Jun-11 17:31N 47°39' W 122°23'0 0.0
2017-Jun-11 17:00N 47°39' W 122°23'0 0.0
2017-Jun-11 16:30N 47°39' W 122°23'0 0.0
2017-Jun-11 16:01N 47°39' W 122°23'0 0.0
2017-Jun-11 15:30N 47°39' W 122°23'0 0.0
2017-Jun-11 15:00N 47°39' W 122°23'0 0.0
2017-Jun-11 14:31N 47°39' W 122°23'0 0.0
2017-Jun-11 13:30N 47°39' W 122°23'0 0.0
2017-Jun-11 13:00N 47°39' W 122°23'0 0.0
2017-Jun-11 12:31N 47°39' W 122°23'0 0.0
2017-Jun-11 12:01N 47°39' W 122°23'0 0.0
2017-Jun-11 11:30N 47°39' W 122°23'0 0.0
2017-Jun-11 11:00N 47°39' W 122°23'0 0.0
2017-Jun-11 10:30N 47°39' W 122°23'0 0.0
2017-Jun-11 10:00N 47°39' W 122°23'0 0.0
2017-Jun-11 09:31N 47°39' W 122°23'0 0.0
2017-Jun-11 09:00N 47°39' W 122°23'0 0.0
2017-Jun-11 08:31N 47°39' W 122°23'0 0.0
2017-Jun-11 08:01N 47°39' W 122°23'0 0.0
2017-Jun-11 07:31N 47°39' W 122°23'0 0.0
2017-Jun-11 07:00N 47°39' W 122°23'0 0.0
2017-Jun-11 06:30N 47°39' W 122°23'0 0.0
2017-Jun-11 06:01N 47°39' W 122°23'0 0.0
2017-Jun-11 05:30N 47°39' W 122°23'0 0.0
2017-Jun-11 05:00N 47°39' W 122°23'0 0.0
2017-Jun-11 04:31N 47°39' W 122°23'0 0.0
2017-Jun-11 04:00N 47°39' W 122°23'0 0.0
2017-Jun-11 03:30N 47°39' W 122°23'0 0.0
2017-Jun-11 03:00N 47°39' W 122°23'0 0.0
2017-Jun-11 02:30N 47°39' W 122°23'0 0.0
2017-Jun-11 02:00N 47°39' W 122°23'0 0.0
2017-Jun-11 01:30N 47°39' W 122°23'0 0.0
2017-Jun-11 01:01N 47°39' W 122°23'0 0.0
2017-Jun-11 00:30N 47°39' W 122°23'0 0.0
2017-Jun-11 00:01N 47°39' W 122°23'0 0.0
2017-Jun-10 23:30N 47°39' W 122°23'0 0.0
2017-Jun-10 23:01N 47°39' W 122°23'0 0.0
2017-Jun-10 22:30N 47°39' W 122°23'0 0.0
2017-Jun-10 22:00N 47°39' W 122°23'0 0.0
2017-Jun-10 21:30N 47°39' W 122°23'0 0.0
2017-Jun-10 21:00N 47°39' W 122°23'0 0.0
2017-Jun-10 20:30N 47°39' W 122°23'0 0.0
2017-Jun-10 20:00N 47°39' W 122°23'0 0.0
2017-Jun-10 19:31N 47°39' W 122°23'0 0.0
2017-Jun-10 19:00N 47°39' W 122°23'0 0.0
2017-Jun-10 18:30N 47°39' W 122°23'0 0.0
2017-Jun-10 18:00N 47°39' W 122°23'0 0.0
2017-Jun-10 17:30N 47°39' W 122°23'0 0.0
2017-Jun-10 17:00N 47°39' W 122°23'0 0.0
2017-Jun-10 16:30N 47°39' W 122°23'0 0.0
2017-Jun-10 16:00N 47°39' W 122°23'0 0.0
2017-Jun-10 15:30N 47°39' W 122°23'0 0.0
2017-Jun-10 15:00N 47°39' W 122°23'0 0.0
2017-Jun-10 14:00N 47°39' W 122°23'0 0.0
2017-Jun-10 13:30N 47°39' W 122°23'0 0.0
2017-Jun-10 13:00N 47°39' W 122°23'0 0.0
2017-Jun-10 12:30N 47°39' W 122°23'0 0.0
2017-Jun-10 12:00N 47°39' W 122°23'0 0.0
2017-Jun-10 11:31N 47°39' W 122°23'0 0.0
2017-Jun-10 11:00N 47°39' W 122°23'0 0.0
2017-Jun-10 10:30N 47°39' W 122°23'0 0.0
2017-Jun-10 10:00N 47°39' W 122°23'0 0.0
2017-Jun-10 09:30N 47°39' W 122°23'0 0.0
2017-Jun-10 09:01N 47°39' W 122°23'0 0.0
2017-Jun-10 08:30N 47°39' W 122°23'0 0.0
2017-Jun-10 08:00N 47°39' W 122°23'0 0.0
2017-Jun-10 07:30N 47°39' W 122°23'0 0.0
2017-Jun-10 07:00N 47°39' W 122°23'0 0.0
2017-Jun-10 06:31N 47°39' W 122°23'0 0.0
2017-Jun-10 06:01N 47°39' W 122°23'0 0.0
2017-Jun-10 05:31N 47°39' W 122°23'0 0.0
2017-Jun-10 05:00N 47°39' W 122°23'0 0.0
2017-Jun-10 04:30N 47°39' W 122°23'0 0.0
2017-Jun-10 04:00N 47°39' W 122°23'0 0.0
2017-Jun-10 03:31N 47°39' W 122°23'0 0.0
2017-Jun-10 03:01N 47°39' W 122°23'0 0.0
2017-Jun-10 02:30N 47°39' W 122°23'0 0.0
2017-Jun-10 02:00N 47°39' W 122°23'0 0.0
2017-Jun-10 01:30N 47°39' W 122°23'0 0.0
2017-Jun-10 01:00N 47°39' W 122°23'0 0.0
2017-Jun-10 00:31N 47°39' W 122°23'0 0.0
2017-Jun-10 00:00N 47°39' W 122°23'0 0.0
2017-Jun-09 23:30N 47°39' W 122°23'0 0.0
2017-Jun-09 23:00N 47°39' W 122°23'0 0.0
2017-Jun-09 22:30N 47°39' W 122°23'0 0.0
2017-Jun-09 22:00N 47°39' W 122°23'0 0.0
2017-Jun-09 21:30N 47°39' W 122°23'0 0.0
2017-Jun-09 21:00N 47°39' W 122°23'0 0.0
2017-Jun-09 20:30N 47°39' W 122°23'0 0.0
2017-Jun-09 20:00N 47°39' W 122°23'0 0.0
2017-Jun-09 19:30N 47°39' W 122°23'0 0.0
2017-Jun-09 19:00N 47°39' W 122°23'0 0.0
2017-Jun-09 18:31N 47°39' W 122°23'0 0.0
2017-Jun-09 18:00N 47°39' W 122°23'0 0.0
2017-Jun-09 17:31N 47°39' W 122°23'0 0.0
2017-Jun-09 17:00N 47°39' W 122°23'0 0.0
2017-Jun-09 16:30N 47°39' W 122°23'0 0.0
2017-Jun-09 16:00N 47°39' W 122°23'0 0.0
2017-Jun-09 15:31N 47°39' W 122°23'0 0.0
2017-Jun-09 15:00N 47°39' W 122°23'0 0.0
2017-Jun-09 14:31N 47°39' W 122°23'0 0.0
2017-Jun-09 13:30N 47°39' W 122°23'0 0.0
2017-Jun-09 13:00N 47°39' W 122°23'0 0.0
2017-Jun-09 12:30N 47°39' W 122°23'0 0.0
2017-Jun-09 12:00N 47°39' W 122°23'0 0.0
2017-Jun-09 11:31N 47°39' W 122°23'0 0.0
2017-Jun-09 11:00N 47°39' W 122°23'0 0.0
2017-Jun-09 10:31N 47°39' W 122°23'0 0.0
2017-Jun-09 10:00N 47°39' W 122°23'0 0.0
2017-Jun-09 09:31N 47°39' W 122°23'0 0.0
2017-Jun-09 09:00N 47°39' W 122°23'0 0.0
2017-Jun-09 08:30N 47°39' W 122°23'0 0.0
2017-Jun-09 08:00N 47°39' W 122°23'0 0.0
2017-Jun-09 07:30N 47°39' W 122°23'0 0.0
2017-Jun-09 07:00N 47°39' W 122°23'0 0.0
2017-Jun-09 06:30N 47°39' W 122°23'0 0.0
2017-Jun-09 06:01N 47°39' W 122°23'0 0.0
2017-Jun-09 05:31N 47°39' W 122°23'0 0.0
2017-Jun-09 05:01N 47°39' W 122°23'0 0.0
2017-Jun-09 04:30N 47°39' W 122°23'0 0.0
2017-Jun-09 04:00N 47°39' W 122°23'0 0.0
2017-Jun-09 03:31N 47°39' W 122°23'0 0.0
2017-Jun-09 03:00N 47°39' W 122°23'0 0.0
2017-Jun-09 02:30N 47°39' W 122°23'0 0.0
2017-Jun-09 02:01N 47°39' W 122°23'0 0.0
2017-Jun-09 01:31N 47°39' W 122°23'0 0.0
2017-Jun-09 01:01N 47°39' W 122°23'0 0.0
2017-Jun-09 00:31N 47°39' W 122°23'0 0.0
2017-Jun-09 00:01N 47°39' W 122°23'0 0.0
2017-Jun-08 23:30N 47°39' W 122°23'0 0.0
2017-Jun-08 23:01N 47°39' W 122°23'0 0.0
2017-Jun-08 22:31N 47°39' W 122°23'0 0.0
2017-Jun-08 22:00N 47°39' W 122°23'0 0.0
2017-Jun-08 21:30N 47°39' W 122°23'0 0.0
2017-Jun-08 21:00N 47°39' W 122°23'0 0.0
2017-Jun-08 20:31N 47°39' W 122°23'0 0.0
2017-Jun-08 20:00N 47°39' W 122°23'0 0.0
2017-Jun-08 19:30N 47°39' W 122°23'0 0.0
2017-Jun-08 19:00N 47°39' W 122°23'0 0.0
2017-Jun-08 18:30N 47°39' W 122°23'0 0.0
2017-Jun-08 18:00N 47°39' W 122°23'0 0.0
2017-Jun-08 17:31N 47°39' W 122°23'0 0.0
2017-Jun-08 17:01N 47°39' W 122°23'0 0.0
2017-Jun-08 16:30N 47°39' W 122°23'0 0.0
2017-Jun-08 16:01N 47°39' W 122°23'0 0.0
2017-Jun-08 15:30N 47°39' W 122°23'0 0.0
2017-Jun-08 15:00N 47°39' W 122°23'0 0.0
2017-Jun-08 14:30N 47°39' W 122°23'0 0.0
2017-Jun-08 13:30N 47°39' W 122°23'0 0.0
2017-Jun-08 13:00N 47°39' W 122°23'0 0.0
2017-Jun-08 12:30N 47°39' W 122°23'0 0.0
2017-Jun-08 12:00N 47°39' W 122°23'0 0.0
2017-Jun-08 11:30N 47°39' W 122°23'0 0.0
2017-Jun-08 11:00N 47°39' W 122°23'0 0.0
2017-Jun-08 10:30N 47°39' W 122°23'0 0.0
2017-Jun-08 10:00N 47°39' W 122°23'0 0.0
2017-Jun-08 09:30N 47°39' W 122°23'0 0.0
2017-Jun-08 09:00N 47°39' W 122°23'0 0.0
2017-Jun-08 08:30N 47°39' W 122°23'0 0.0
2017-Jun-08 08:00N 47°39' W 122°23'0 0.0
2017-Jun-08 07:30N 47°39' W 122°23'0 0.0
2017-Jun-08 07:00N 47°39' W 122°23'0 0.0
2017-Jun-08 06:31N 47°39' W 122°23'0 0.0
2017-Jun-08 06:00N 47°39' W 122°23'0 0.0
2017-Jun-08 05:30N 47°39' W 122°23'0 0.0
2017-Jun-08 05:00N 47°39' W 122°23'0 0.0
2017-Jun-08 04:30N 47°39' W 122°23'0 0.0
2017-Jun-08 04:00N 47°39' W 122°23'0 0.0
2017-Jun-08 03:30N 47°39' W 122°23'0 0.0
2017-Jun-08 03:00N 47°39' W 122°23'0 0.0
2017-Jun-08 02:30N 47°39' W 122°23'0 0.0
2017-Jun-08 02:01N 47°39' W 122°23'0 0.0
2017-Jun-08 01:30N 47°39' W 122°23'0 0.0
2017-Jun-08 01:01N 47°39' W 122°23'0 0.0
2017-Jun-08 00:31N 47°39' W 122°23'0 0.0
2017-Jun-08 00:01N 47°39' W 122°23'0 0.0
2017-Jun-07 23:30N 47°39' W 122°23'0 0.0
2017-Jun-07 23:01N 47°39' W 122°23'0 0.0
2017-Jun-07 22:30N 47°39' W 122°23'0 0.0
2017-Jun-07 22:00N 47°39' W 122°23'0 0.0
2017-Jun-07 21:30N 47°39' W 122°23'0 0.0
2017-Jun-07 21:00N 47°39' W 122°23'0 0.0
2017-Jun-07 20:31N 47°39' W 122°23'0 0.0
2017-Jun-07 20:00N 47°39' W 122°23'0 0.0
2017-Jun-07 19:30N 47°39' W 122°23'0 0.0
2017-Jun-07 19:00N 47°39' W 122°23'0 0.0
2017-Jun-07 18:31N 47°39' W 122°23'0 0.0
2017-Jun-07 18:00N 47°39' W 122°23'0 0.0
2017-Jun-07 17:30N 47°39' W 122°23'0 0.0
2017-Jun-07 17:00N 47°39' W 122°23'0 0.0
2017-Jun-07 16:30N 47°39' W 122°23'0 0.0
2017-Jun-07 16:00N 47°39' W 122°23'0 0.0
2017-Jun-07 15:30N 47°39' W 122°23'0 0.0
2017-Jun-07 15:00N 47°39' W 122°23'0 0.0
2017-Jun-07 14:00N 47°39' W 122°23'0 0.0
2017-Jun-07 13:31N 47°39' W 122°23'0 0.0
2017-Jun-07 13:00N 47°39' W 122°23'0 0.0
2017-Jun-07 12:30N 47°39' W 122°23'0 0.0
2017-Jun-07 12:00N 47°39' W 122°23'0 0.0
2017-Jun-07 11:30N 47°39' W 122°23'0 0.0
2017-Jun-07 11:00N 47°39' W 122°23'0 0.0
2017-Jun-07 10:30N 47°39' W 122°23'0 0.0
2017-Jun-07 10:01N 47°39' W 122°23'0 0.0
2017-Jun-07 09:31N 47°39' W 122°23'0 0.0
2017-Jun-07 09:00N 47°39' W 122°23'0 0.0
2017-Jun-07 08:30N 47°39' W 122°23'0 0.0
2017-Jun-07 08:00N 47°39' W 122°23'0 0.0
2017-Jun-07 07:30N 47°39' W 122°23'0 0.0
2017-Jun-07 07:00N 47°39' W 122°23'0 0.0
2017-Jun-07 06:30N 47°39' W 122°23'0 0.0
2017-Jun-07 06:00N 47°39' W 122°23'0 0.0
2017-Jun-07 05:31N 47°39' W 122°23'0 0.0
2017-Jun-07 05:00N 47°39' W 122°23'0 0.0
2017-Jun-07 04:30N 47°39' W 122°23'0 0.0
2017-Jun-07 04:00N 47°39' W 122°23'0 0.0
2017-Jun-07 03:30N 47°39' W 122°23'0 0.0
2017-Jun-07 03:01N 47°39' W 122°23'0 0.0
2017-Jun-07 02:30N 47°39' W 122°23'0 0.0
2017-Jun-07 02:00N 47°39' W 122°23'0 0.0
2017-Jun-07 01:31N 47°39' W 122°23'0 0.0
2017-Jun-07 01:01N 47°39' W 122°23'0 0.0
2017-Jun-07 00:30N 47°39' W 122°23'0 0.0
2017-Jun-07 00:01N 47°39' W 122°23'0 0.0
2017-Jun-06 23:30N 47°39' W 122°23'0 0.0
2017-Jun-06 23:01N 47°39' W 122°23'0 0.0
2017-Jun-06 22:31N 47°39' W 122°23'0 0.0
2017-Jun-06 22:01N 47°39' W 122°23'0 0.0
2017-Jun-06 21:30N 47°39' W 122°23'0 0.0
2017-Jun-06 21:00N 47°39' W 122°23'0 0.0
2017-Jun-06 20:31N 47°39' W 122°23'0 0.0
2017-Jun-06 20:01N 47°39' W 122°23'  
Track history (hours):
 
Tides and Currents Weather Stations Pressure Air Temp Water Temp Dewpoint Dewpoint Depression Visibility Wind Speed Wind Dir Waves Ship Positions

Polar Lady

Owner: M.G.F Fisheries, Seattle, WA. More information available from US FCC via Universal Licensing System and Coast Guard Vessel Documentation Center.

Last reported at 2017-Jun-16 19:45 UTC. Time now 2017-Jun-27 22:24 UTC.
Position N 52°29' W 128°27'.
Warning: this ship's position is 11 days out of date.

Length 40 m.

Type: Fishing. MMSI: 367024080.

Date/timePositionNaut miles runAvg speedWind from/ knotsBaromVisibWave heightAir tempDewpointWater temp
2017-Jun-16 19:45N 52°29' W 128°27'2 9.5
2017-Jun-16 19:30N 52°27' W 128°28'22 7.2
2017-Jun-16 16:25N 52°08' W 128°08'4 8.5
2017-Jun-16 15:59N 52°05' W 128°06'6 9.4
2017-Jun-16 15:22N 52°04' W 127°56'3 9.0
2017-Jun-16 15:00N 52°01' W 127°56'9 9.3
2017-Jun-16 14:00N 51°51' W 127°57'5 9.1
2017-Jun-16 13:30N 51°47' W 127°57'5 9.3
2017-Jun-16 13:00N 51°42' W 127°57'5 9.9
2017-Jun-16 12:30N 51°37' W 127°54'5 9.7
2017-Jun-16 12:00N 51°33' W 127°53'5 9.2
2017-Jun-16 11:27N 51°28' W 127°51'11 9.1
2017-Jun-16 10:15N 51°17' W 127°53'4 8.8
2017-Jun-16 09:47N 51°13' W 127°52'102 8.9
2017-Jun-15 22:22N 50°22' W 125°33'410.4
2017-Jun-15 22:00N 50°20' W 125°27'5 9.6
2017-Jun-15 21:30N 50°16' W 125°24'610.9
2017-Jun-15 21:00N 50°11' W 125°22'612.3
2017-Jun-15 20:30N 50°06' W 125°17'713.2
2017-Jun-15 20:00N 49°59' W 125°12'510.1
2017-Jun-15 19:30N 49°56' W 125°07'5 9.7
2017-Jun-15 19:00N 49°53' W 125°02'5 9.4
2017-Jun-15 18:30N 49°49' W 124°57'5 9.8
2017-Jun-15 18:00N 49°46' W 124°51'510.0
2017-Jun-15 17:30N 49°42' W 124°46'5 9.9
2017-Jun-15 17:00N 49°39' W 124°40'48 9.7
2017-Jun-15 12:03N 49°13' W 123°38'1 9.7
2017-Jun-15 11:57N 49°12' W 123°37'610.1
2017-Jun-15 11:21N 49°08' W 123°30'410.2
2017-Jun-15 10:58N 49°06' W 123°26'5 9.9
2017-Jun-15 10:29N 49°03' W 123°20'5 9.3
2017-Jun-15 09:59N 48°60' W 123°14'5 9.0
2017-Jun-15 09:26N 48°57' W 123°08'4 9.4
2017-Jun-15 09:00N 48°54' W 123°04'7 9.8
2017-Jun-15 08:18N 48°50' W 122°56'5 9.5
2017-Jun-15 07:48N 48°47' W 122°50'3 8.7
2017-Jun-15 07:29N 48°45' W 122°47'5 9.6
2017-Jun-15 07:00N 48°41' W 122°44'4 8.0
2017-Jun-15 06:30N 48°37' W 122°45'5 9.4
2017-Jun-15 06:00N 48°32' W 122°45'510.2
2017-Jun-15 05:30N 48°27' W 122°44'6 9.8
2017-Jun-15 04:56N 48°21' W 122°45'5 8.8
2017-Jun-15 04:21N 48°16' W 122°47'3 8.5
2017-Jun-15 03:59N 48°13' W 122°48'4 7.4
2017-Jun-15 03:23N 48°10' W 122°44'3 5.7
2017-Jun-15 02:57N 48°08' W 122°41'10 6.3
2017-Jun-15 01:20N 47°59' W 122°35'2 7.1
2017-Jun-15 01:00N 47°57' W 122°32'4 8.3
2017-Jun-15 00:30N 47°54' W 122°28'4 8.5
2017-Jun-15 00:00N 47°50' W 122°27'5 9.2
2017-Jun-14 23:30N 47°45' W 122°25'4 9.0
2017-Jun-14 23:00N 47°41' W 122°25'1 2.5
2017-Jun-14 22:30N 47°40' W 122°24'0 0.7
2017-Jun-14 22:00N 47°40' W 122°23'0 0.1
2017-Jun-14 21:30N 47°40' W 122°23'0 0.2
2017-Jun-14 21:01N 47°40' W 122°23'0 0.0
2017-Jun-14 20:30N 47°40' W 122°23'0 0.0
2017-Jun-14 20:01N 47°40' W 122°23'0 0.0
2017-Jun-14 19:30N 47°40' W 122°23'0 0.0
2017-Jun-14 19:00N 47°40' W 122°23'0 0.0
2017-Jun-14 18:30N 47°40' W 122°23'0 0.4
2017-Jun-14 18:00N 47°40' W 122°23'0 0.6
2017-Jun-14 17:30N 47°40' W 122°23'0 0.0
2017-Jun-14 17:00N 47°40' W 122°23'0 0.0
2017-Jun-14 16:30N 47°40' W 122°23'0 0.0
2017-Jun-14 16:00N 47°40' W 122°23'0 0.0
2017-Jun-14 15:30N 47°40' W 122°23'0 0.0
2017-Jun-14 15:00N 47°40' W 122°23'0 0.0
2017-Jun-14 14:00N 47°40' W 122°23'0 0.0
2017-Jun-14 13:30N 47°40' W 122°23'0 0.0
2017-Jun-14 13:00N 47°40' W 122°23'0 0.0
2017-Jun-14 12:30N 47°40' W 122°23'0 0.0
2017-Jun-14 12:00N 47°40' W 122°23'0 0.0
2017-Jun-14 11:30N 47°40' W 122°23'0 0.0
2017-Jun-14 11:00N 47°40' W 122°23'0 0.0
2017-Jun-14 10:30N 47°40' W 122°23'0 0.0
2017-Jun-14 10:00N 47°40' W 122°23'0 0.0
2017-Jun-14 09:30N 47°40' W 122°23'0 0.0
2017-Jun-14 09:00N 47°40' W 122°23'0 0.0
2017-Jun-14 08:30N 47°40' W 122°23'0 0.0
2017-Jun-14 08:00N 47°40' W 122°23'0 0.0
2017-Jun-14 07:30N 47°40' W 122°23'0 0.0
2017-Jun-14 07:00N 47°40' W 122°23'0 0.0
2017-Jun-14 06:31N 47°40' W 122°23'0 0.0
2017-Jun-14 06:00N 47°40' W 122°23'0 0.0
2017-Jun-14 05:30N 47°40' W 122°23'0 0.0
2017-Jun-14 05:01N 47°40' W 122°23'0 0.0
2017-Jun-14 04:30N 47°40' W 122°23'0 0.0
2017-Jun-14 04:00N 47°40' W 122°23'0 0.0
2017-Jun-14 03:30N 47°40' W 122°23'0 0.0
2017-Jun-14 03:00N 47°40' W 122°23'0 0.0
2017-Jun-14 02:30N 47°40' W 122°23'0 0.0
2017-Jun-14 02:00N 47°40' W 122°23'0 0.0
2017-Jun-14 01:30N 47°40' W 122°23'0 0.0
2017-Jun-14 01:00N 47°40' W 122°23'0 0.0
2017-Jun-14 00:30N 47°40' W 122°23'0 0.0
2017-Jun-14 00:00N 47°40' W 122°23'0 0.0
2017-Jun-13 23:30N 47°40' W 122°23'0 0.0
2017-Jun-13 23:00N 47°40' W 122°23'0 0.2
2017-Jun-13 22:30N 47°40' W 122°23'0 0.4
2017-Jun-13 22:00N 47°40' W 122°23'0 0.0
2017-Jun-13 21:30N 47°40' W 122°23'0 0.0
2017-Jun-13 21:00N 47°40' W 122°23'0 0.0
2017-Jun-13 20:30N 47°40' W 122°23'0 0.0
2017-Jun-13 20:00N 47°40' W 122°23'0 0.6
2017-Jun-13 19:30N 47°40' W 122°23'0 0.5
2017-Jun-13 19:00N 47°39' W 122°23'0 0.0
2017-Jun-13 18:30N 47°39' W 122°23'0 0.0
2017-Jun-13 18:00N 47°39' W 122°23'0 0.0
2017-Jun-13 17:30N 47°39' W 122°23'0 0.0
2017-Jun-13 17:00N 47°39' W 122°23'0 0.0
2017-Jun-13 16:31N 47°39' W 122°23'0 0.0
2017-Jun-13 16:00N 47°39' W 122°23'0 0.0
2017-Jun-13 15:31N 47°39' W 122°23'0 0.0
2017-Jun-13 15:00N 47°39' W 122°23'0 0.0
2017-Jun-13 14:00N 47°39' W 122°23'0 0.0
2017-Jun-13 13:30N 47°39' W 122°23'0 0.0
2017-Jun-13 13:00N 47°39' W 122°23'0 0.0
2017-Jun-13 12:30N 47°39' W 122°23'0 0.0
2017-Jun-13 12:00N 47°39' W 122°23'0 0.0
2017-Jun-13 11:30N 47°39' W 122°23'0 0.0
2017-Jun-13 11:00N 47°39' W 122°23'0 0.0
2017-Jun-13 10:30N 47°39' W 122°23'0 0.0
2017-Jun-13 10:01N 47°39' W 122°23'0 0.0
2017-Jun-13 09:30N 47°39' W 122°23'0 0.0
2017-Jun-13 09:00N 47°39' W 122°23'0 0.0
2017-Jun-13 08:30N 47°39' W 122°23'0 0.0
2017-Jun-13 08:00N 47°39' W 122°23'0 0.0
2017-Jun-13 07:30N 47°39' W 122°23'0 0.0
2017-Jun-13 07:00N 47°39' W 122°23'0 0.0
2017-Jun-13 06:30N 47°39' W 122°23'0 0.0
2017-Jun-13 06:01N 47°39' W 122°23'0 0.0
2017-Jun-13 05:31N 47°39' W 122°23'0 0.0
2017-Jun-13 05:00N 47°39' W 122°23'0 0.0
2017-Jun-13 04:30N 47°39' W 122°23'0 0.0
2017-Jun-13 04:00N 47°39' W 122°23'0 0.0
2017-Jun-13 03:30N 47°39' W 122°23'0 0.0
2017-Jun-13 03:00N 47°39' W 122°23'0 0.0
2017-Jun-13 02:31N 47°39' W 122°23'0 0.0
2017-Jun-13 02:00N 47°39' W 122°23'0 0.0
2017-Jun-13 01:31N 47°39' W 122°23'0 0.0
2017-Jun-13 01:00N 47°39' W 122°23'0 0.0
2017-Jun-13 00:31N 47°39' W 122°23'0 0.0
2017-Jun-13 00:01N 47°39' W 122°23'0 0.0
2017-Jun-12 23:31N 47°39' W 122°23'0 0.0
2017-Jun-12 23:01N 47°39' W 122°23'0 0.0
2017-Jun-12 22:30N 47°39' W 122°23'0 0.0
2017-Jun-12 22:01N 47°39' W 122°23'0 0.0
2017-Jun-12 21:30N 47°39' W 122°23'0 0.0
2017-Jun-12 21:01N 47°39' W 122°23'0 0.0
2017-Jun-12 20:30N 47°39' W 122°23'0 0.0
2017-Jun-12 20:00N 47°39' W 122°23'0 0.0
2017-Jun-12 19:31N 47°39' W 122°23'0 0.0
2017-Jun-12 19:00N 47°39' W 122°23'0 0.0
2017-Jun-12 18:31N 47°39' W 122°23'0 0.0
2017-Jun-12 18:00N 47°39' W 122°23'0 0.0
2017-Jun-12 17:31N 47°39' W 122°23'0 0.0
2017-Jun-12 17:01N 47°39' W 122°23'0 0.0
2017-Jun-12 16:30N 47°39' W 122°23'0 0.0
2017-Jun-12 16:00N 47°39' W 122°23'0 0.0
2017-Jun-12 15:30N 47°39' W 122°23'0 0.0
2017-Jun-12 15:00N 47°39' W 122°23'0 0.0
2017-Jun-12 14:31N 47°39' W 122°23'0 0.0
2017-Jun-12 13:31N 47°39' W 122°23'0 0.0
2017-Jun-12 13:00N 47°39' W 122°23'0 0.0
2017-Jun-12 12:30N 47°39' W 122°23'0 0.0
2017-Jun-12 12:00N 47°39' W 122°23'0 0.0
2017-Jun-12 11:31N 47°39' W 122°23'0 0.0
2017-Jun-12 11:01N 47°39' W 122°23'0 0.0
2017-Jun-12 10:31N 47°39' W 122°23'0 0.0
2017-Jun-12 10:00N 47°39' W 122°23'0 0.0
2017-Jun-12 09:30N 47°39' W 122°23'0 0.0
2017-Jun-12 09:00N 47°39' W 122°23'0 0.0
2017-Jun-12 08:30N 47°39' W 122°23'0 0.0
2017-Jun-12 08:01N 47°39' W 122°23'0 0.0
2017-Jun-12 07:30N 47°39' W 122°23'0 0.0
2017-Jun-12 07:00N 47°39' W 122°23'0 0.0
2017-Jun-12 06:30N 47°39' W 122°23'0 0.0
2017-Jun-12 06:00N 47°39' W 122°23'0 0.0
2017-Jun-12 05:31N 47°39' W 122°23'0 0.0
2017-Jun-12 05:00N 47°39' W 122°23'0 0.0
2017-Jun-12 04:31N 47°39' W 122°23'0 0.0
2017-Jun-12 04:01N 47°39' W 122°23'0 0.0
2017-Jun-12 03:30N 47°39' W 122°23'0 0.0
2017-Jun-12 03:00N 47°39' W 122°23'0 0.0
2017-Jun-12 02:31N 47°39' W 122°23'0 0.0
2017-Jun-12 02:00N 47°39' W 122°23'0 0.0
2017-Jun-12 01:30N 47°39' W 122°23'0 0.0
2017-Jun-12 01:01N 47°39' W 122°23'0 0.0
2017-Jun-12 00:30N 47°39' W 122°23'0 0.0
2017-Jun-12 00:00N 47°39' W 122°23'0 0.0
2017-Jun-11 23:31N 47°39' W 122°23'0 0.0
2017-Jun-11 23:00N 47°39' W 122°23'0 0.0
2017-Jun-11 22:30N 47°39' W 122°23'0 0.0
2017-Jun-11 22:00N 47°39' W 122°23'0 0.0
2017-Jun-11 21:31N 47°39' W 122°23'0 0.0
2017-Jun-11 21:01N 47°39' W 122°23'0 0.0
2017-Jun-11 20:30N 47°39' W 122°23'0 0.0
2017-Jun-11 20:00N 47°39' W 122°23'0 0.0
2017-Jun-11 19:31N 47°39' W 122°23'0 0.0
2017-Jun-11 19:00N 47°39' W 122°23'0 0.0
2017-Jun-11 18:30N 47°39' W 122°23'0 0.0
2017-Jun-11 18:00N 47°39' W 122°23'0 0.0
2017-Jun-11 17:31N 47°39' W 122°23'0 0.0
2017-Jun-11 17:00N 47°39' W 122°23'0 0.0
2017-Jun-11 16:30N 47°39' W 122°23'0 0.0
2017-Jun-11 16:01N 47°39' W 122°23'0 0.0
2017-Jun-11 15:30N 47°39' W 122°23'0 0.0
2017-Jun-11 15:00N 47°39' W 122°23'0 0.0
2017-Jun-11 14:31N 47°39' W 122°23'0 0.0
2017-Jun-11 13:30N 47°39' W 122°23'0 0.0
2017-Jun-11 13:00N 47°39' W 122°23'0 0.0
2017-Jun-11 12:31N 47°39' W 122°23'0 0.0
2017-Jun-11 12:01N 47°39' W 122°23'0 0.0
2017-Jun-11 11:30N 47°39' W 122°23'0 0.0
2017-Jun-11 11:00N 47°39' W 122°23'0 0.0
2017-Jun-11 10:30N 47°39' W 122°23'0 0.0
2017-Jun-11 10:00N 47°39' W 122°23'0 0.0
2017-Jun-11 09:31N 47°39' W 122°23'0 0.0
2017-Jun-11 09:00N 47°39' W 122°23'0 0.0
2017-Jun-11 08:31N 47°39' W 122°23'0 0.0
2017-Jun-11 08:01N 47°39' W 122°23'0 0.0
2017-Jun-11 07:31N 47°39' W 122°23'0 0.0
2017-Jun-11 07:00N 47°39' W 122°23'0 0.0
2017-Jun-11 06:30N 47°39' W 122°23'0 0.0
2017-Jun-11 06:01N 47°39' W 122°23'0 0.0
2017-Jun-11 05:30N 47°39' W 122°23'0 0.0
2017-Jun-11 05:00N 47°39' W 122°23'0 0.0
2017-Jun-11 04:31N 47°39' W 122°23'0 0.0
2017-Jun-11 04:00N 47°39' W 122°23'0 0.0
2017-Jun-11 03:30N 47°39' W 122°23'0 0.0
2017-Jun-11 03:00N 47°39' W 122°23'0 0.0
2017-Jun-11 02:30N 47°39' W 122°23'0 0.0
2017-Jun-11 02:00N 47°39' W 122°23'0 0.0
2017-Jun-11 01:30N 47°39' W 122°23'0 0.0
2017-Jun-11 01:01N 47°39' W 122°23'0 0.0
2017-Jun-11 00:30N 47°39' W 122°23'0 0.0
2017-Jun-11 00:01N 47°39' W 122°23'0 0.0
2017-Jun-10 23:30N 47°39' W 122°23'0 0.0
2017-Jun-10 23:01N 47°39' W 122°23'0 0.0
2017-Jun-10 22:30N 47°39' W 122°23'0 0.0
2017-Jun-10 22:00N 47°39' W 122°23'0 0.0
2017-Jun-10 21:30N 47°39' W 122°23'0 0.0
2017-Jun-10 21:00N 47°39' W 122°23'0 0.0
2017-Jun-10 20:30N 47°39' W 122°23'0 0.0
2017-Jun-10 20:00N 47°39' W 122°23'0 0.0
2017-Jun-10 19:31N 47°39' W 122°23'0 0.0
2017-Jun-10 19:00N 47°39' W 122°23'0 0.0
2017-Jun-10 18:30N 47°39' W 122°23'0 0.0
2017-Jun-10 18:00N 47°39' W 122°23'0 0.0
2017-Jun-10 17:30N 47°39' W 122°23'0 0.0
2017-Jun-10 17:00N 47°39' W 122°23'0 0.0
2017-Jun-10 16:30N 47°39' W 122°23'0 0.0
2017-Jun-10 16:00N 47°39' W 122°23'0 0.0
2017-Jun-10 15:30N 47°39' W 122°23'0 0.0
2017-Jun-10 15:00N 47°39' W 122°23'0 0.0
2017-Jun-10 14:00N 47°39' W 122°23'0 0.0
2017-Jun-10 13:30N 47°39' W 122°23'0 0.0
2017-Jun-10 13:00N 47°39' W 122°23'0 0.0
2017-Jun-10 12:30N 47°39' W 122°23'0 0.0
2017-Jun-10 12:00N 47°39' W 122°23'0 0.0
2017-Jun-10 11:31N 47°39' W 122°23'0 0.0
2017-Jun-10 11:00N 47°39' W 122°23'0 0.0
2017-Jun-10 10:30N 47°39' W 122°23'0 0.0
2017-Jun-10 10:00N 47°39' W 122°23'0 0.0
2017-Jun-10 09:30N 47°39' W 122°23'0 0.0
2017-Jun-10 09:01N 47°39' W 122°23'0 0.0
2017-Jun-10 08:30N 47°39' W 122°23'0 0.0
2017-Jun-10 08:00N 47°39' W 122°23'0 0.0
2017-Jun-10 07:30N 47°39' W 122°23'0 0.0
2017-Jun-10 07:00N 47°39' W 122°23'0 0.0
2017-Jun-10 06:31N 47°39' W 122°23'0 0.0
2017-Jun-10 06:01N 47°39' W 122°23'0 0.0
2017-Jun-10 05:31N 47°39' W 122°23'0 0.0
2017-Jun-10 05:00N 47°39' W 122°23'0 0.0
2017-Jun-10 04:30N 47°39' W 122°23'0 0.0
2017-Jun-10 04:00N 47°39' W 122°23'0 0.0
2017-Jun-10 03:31N 47°39' W 122°23'0 0.0
2017-Jun-10 03:01N 47°39' W 122°23'0 0.0
2017-Jun-10 02:30N 47°39' W 122°23'0 0.0
2017-Jun-10 02:00N 47°39' W 122°23'0 0.0
2017-Jun-10 01:30N 47°39' W 122°23'0 0.0
2017-Jun-10 01:00N 47°39' W 122°23'0 0.0
2017-Jun-10 00:31N 47°39' W 122°23'0 0.0
2017-Jun-10 00:00N 47°39' W 122°23'0 0.0
2017-Jun-09 23:30N 47°39' W 122°23'0 0.0
2017-Jun-09 23:00N 47°39' W 122°23'0 0.0
2017-Jun-09 22:30N 47°39' W 122°23'0 0.0
2017-Jun-09 22:00N 47°39' W 122°23'0 0.0
2017-Jun-09 21:30N 47°39' W 122°23'0 0.0
2017-Jun-09 21:00N 47°39' W 122°23'0 0.0
2017-Jun-09 20:30N 47°39' W 122°23'0 0.0
2017-Jun-09 20:00N 47°39' W 122°23'0 0.0
2017-Jun-09 19:30N 47°39' W 122°23'0 0.0
2017-Jun-09 19:00N 47°39' W 122°23'0 0.0
2017-Jun-09 18:31N 47°39' W 122°23'0 0.0
2017-Jun-09 18:00N 47°39' W 122°23'0 0.0
2017-Jun-09 17:31N 47°39' W 122°23'0 0.0
2017-Jun-09 17:00N 47°39' W 122°23'0 0.0
2017-Jun-09 16:30N 47°39' W 122°23'0 0.0
2017-Jun-09 16:00N 47°39' W 122°23'0 0.0
2017-Jun-09 15:31N 47°39' W 122°23'0 0.0
2017-Jun-09 15:00N 47°39' W 122°23'0 0.0
2017-Jun-09 14:31N 47°39' W 122°23'0 0.0
2017-Jun-09 13:30N 47°39' W 122°23'0 0.0
2017-Jun-09 13:00N 47°39' W 122°23'0 0.0
2017-Jun-09 12:30N 47°39' W 122°23'0 0.0
2017-Jun-09 12:00N 47°39' W 122°23'0 0.0
2017-Jun-09 11:31N 47°39' W 122°23'0 0.0
2017-Jun-09 11:00N 47°39' W 122°23'0 0.0
2017-Jun-09 10:31N 47°39' W 122°23'0 0.0
2017-Jun-09 10:00N 47°39' W 122°23'0 0.0
2017-Jun-09 09:31N 47°39' W 122°23'0 0.0
2017-Jun-09 09:00N 47°39' W 122°23'0 0.0
2017-Jun-09 08:30N 47°39' W 122°23'0 0.0
2017-Jun-09 08:00N 47°39' W 122°23'0 0.0
2017-Jun-09 07:30N 47°39' W 122°23'0 0.0
2017-Jun-09 07:00N 47°39' W 122°23'0 0.0
2017-Jun-09 06:30N 47°39' W 122°23'0 0.0
2017-Jun-09 06:01N 47°39' W 122°23'0 0.0
2017-Jun-09 05:31N 47°39' W 122°23'0 0.0
2017-Jun-09 05:01N 47°39' W 122°23'0 0.0
2017-Jun-09 04:30N 47°39' W 122°23'0 0.0
2017-Jun-09 04:00N 47°39' W 122°23'0 0.0
2017-Jun-09 03:31N 47°39' W 122°23'0 0.0
2017-Jun-09 03:00N 47°39' W 122°23'0 0.0
2017-Jun-09 02:30N 47°39' W 122°23'0 0.0
2017-Jun-09 02:01N 47°39' W 122°23'0 0.0
2017-Jun-09 01:31N 47°39' W 122°23'0 0.0
2017-Jun-09 01:01N 47°39' W 122°23'0 0.0
2017-Jun-09 00:31N 47°39' W 122°23'0 0.0
2017-Jun-09 00:01N 47°39' W 122°23'0 0.0
2017-Jun-08 23:30N 47°39' W 122°23'0 0.0
2017-Jun-08 23:01N 47°39' W 122°23'0 0.0
2017-Jun-08 22:31N 47°39' W 122°23'0 0.0
2017-Jun-08 22:00N 47°39' W 122°23'0 0.0
2017-Jun-08 21:30N 47°39' W 122°23'0 0.0
2017-Jun-08 21:00N 47°39' W 122°23'0 0.0
2017-Jun-08 20:31N 47°39' W 122°23'0 0.0
2017-Jun-08 20:00N 47°39' W 122°23'0 0.0
2017-Jun-08 19:30N 47°39' W 122°23'0 0.0
2017-Jun-08 19:00N 47°39' W 122°23'0 0.0
2017-Jun-08 18:30N 47°39' W 122°23'0 0.0
2017-Jun-08 18:00N 47°39' W 122°23'0 0.0
2017-Jun-08 17:31N 47°39' W 122°23'0 0.0
2017-Jun-08 17:01N 47°39' W 122°23'0 0.0
2017-Jun-08 16:30N 47°39' W 122°23'0 0.0
2017-Jun-08 16:01N 47°39' W 122°23'0 0.0
2017-Jun-08 15:30N 47°39' W 122°23'0 0.0
2017-Jun-08 15:00N 47°39' W 122°23'0 0.0
2017-Jun-08 14:30N 47°39' W 122°23'0 0.0
2017-Jun-08 13:30N 47°39' W 122°23'0 0.0
2017-Jun-08 13:00N 47°39' W 122°23'0 0.0
2017-Jun-08 12:30N 47°39' W 122°23'0 0.0
2017-Jun-08 12:00N 47°39' W 122°23'0 0.0
2017-Jun-08 11:30N 47°39' W 122°23'0 0.0
2017-Jun-08 11:00N 47°39' W 122°23'0 0.0
2017-Jun-08 10:30N 47°39' W 122°23'0 0.0
2017-Jun-08 10:00N 47°39' W 122°23'0 0.0
2017-Jun-08 09:30N 47°39' W 122°23'0 0.0
2017-Jun-08 09:00N 47°39' W 122°23'0 0.0
2017-Jun-08 08:30N 47°39' W 122°23'0 0.0
2017-Jun-08 08:00N 47°39' W 122°23'0 0.0
2017-Jun-08 07:30N 47°39' W 122°23'0 0.0
2017-Jun-08 07:00N 47°39' W 122°23'0 0.0
2017-Jun-08 06:31N 47°39' W 122°23'0 0.0
2017-Jun-08 06:00N 47°39' W 122°23'0 0.0
2017-Jun-08 05:30N 47°39' W 122°23'0 0.0
2017-Jun-08 05:00N 47°39' W 122°23'0 0.0
2017-Jun-08 04:30N 47°39' W 122°23'0 0.0
2017-Jun-08 04:00N 47°39' W 122°23'0 0.0
2017-Jun-08 03:30N 47°39' W 122°23'0 0.0
2017-Jun-08 03:00N 47°39' W 122°23'0 0.0
2017-Jun-08 02:30N 47°39' W 122°23'0 0.0
2017-Jun-08 02:01N 47°39' W 122°23'0 0.0
2017-Jun-08 01:30N 47°39' W 122°23'0 0.0
2017-Jun-08 01:01N 47°39' W 122°23'0 0.0
2017-Jun-08 00:31N 47°39' W 122°23'0 0.0
2017-Jun-08 00:01N 47°39' W 122°23'0 0.0
2017-Jun-07 23:30N 47°39' W 122°23'0 0.0
2017-Jun-07 23:01N 47°39' W 122°23'0 0.0
2017-Jun-07 22:30N 47°39' W 122°23'0 0.0
2017-Jun-07 22:00N 47°39' W 122°23'0 0.0
2017-Jun-07 21:30N 47°39' W 122°23'0 0.0
2017-Jun-07 21:00N 47°39' W 122°23'0 0.0
2017-Jun-07 20:31N 47°39' W 122°23'0 0.0
2017-Jun-07 20:00N 47°39' W 122°23'0 0.0
2017-Jun-07 19:30N 47°39' W 122°23'0 0.0
2017-Jun-07 19:00N 47°39' W 122°23'0 0.0
2017-Jun-07 18:31N 47°39' W 122°23'0 0.0
2017-Jun-07 18:00N 47°39' W 122°23'0 0.0
2017-Jun-07 17:30N 47°39' W 122°23'0 0.0
2017-Jun-07 17:00N 47°39' W 122°23'0 0.0
2017-Jun-07 16:30N 47°39' W 122°23'0 0.0
2017-Jun-07 16:00N 47°39' W 122°23'0 0.0
2017-Jun-07 15:30N 47°39' W 122°23'0 0.0
2017-Jun-07 15:00N 47°39' W 122°23'0 0.0
2017-Jun-07 14:00N 47°39' W 122°23'0 0.0
2017-Jun-07 13:31N 47°39' W 122°23'0 0.0
2017-Jun-07 13:00N 47°39' W 122°23'0 0.0
2017-Jun-07 12:30N 47°39' W 122°23'0 0.0
2017-Jun-07 12:00N 47°39' W 122°23'0 0.0
2017-Jun-07 11:30N 47°39' W 122°23'0 0.0
2017-Jun-07 11:00N 47°39' W 122°23'0 0.0
2017-Jun-07 10:30N 47°39' W 122°23'0 0.0
2017-Jun-07 10:01N 47°39' W 122°23'0 0.0
2017-Jun-07 09:31N 47°39' W 122°23'0 0.0
2017-Jun-07 09:00N 47°39' W 122°23'0 0.0
2017-Jun-07 08:30N 47°39' W 122°23'0 0.0
2017-Jun-07 08:00N 47°39' W 122°23'0 0.0
2017-Jun-07 07:30N 47°39' W 122°23'0 0.0
2017-Jun-07 07:00N 47°39' W 122°23'0 0.0
2017-Jun-07 06:30N 47°39' W 122°23'0 0.0
2017-Jun-07 06:00N 47°39' W 122°23'0 0.0
2017-Jun-07 05:31N 47°39' W 122°23'0 0.0
2017-Jun-07 05:00N 47°39' W 122°23'0 0.0
2017-Jun-07 04:30N 47°39' W 122°23'0 0.0
2017-Jun-07 04:00N 47°39' W 122°23'0 0.0
2017-Jun-07 03:30N 47°39' W 122°23'0 0.0
2017-Jun-07 03:01N 47°39' W 122°23'0 0.0
2017-Jun-07 02:30N 47°39' W 122°23'0 0.0
2017-Jun-07 02:00N 47°39' W 122°23'0 0.0
2017-Jun-07 01:31N 47°39' W 122°23'0 0.0
2017-Jun-07 01:01N 47°39' W 122°23'0 0.0
2017-Jun-07 00:30N 47°39' W 122°23'0 0.0
2017-Jun-07 00:01N 47°39' W 122°23'0 0.0
2017-Jun-06 23:30N 47°39' W 122°23'0 0.0
2017-Jun-06 23:01N 47°39' W 122°23'0 0.0
2017-Jun-06 22:31N 47°39' W 122°23'0 0.0
2017-Jun-06 22:01N 47°39' W 122°23'0 0.0
2017-Jun-06 21:30N 47°39' W 122°23'0 0.0
2017-Jun-06 21:00N 47°39' W 122°23'0 0.0
2017-Jun-06 20:31N 47°39' W 122°23'0 0.0
2017-Jun-06 20:01N 47°39' W 122°23'  

Dump ship's entire track history